Time;durP1;ratioP1;P1;durP2;ratioP2;P2;SDS_P1;SDS_P2;PMS_P1;PMS_P2;Temp;Humidity;BMP_temperature;BMP_pressure;BME280_temperature;BME280_humidity;BME280_pressure;Samples;Min_cycle;Max_cycle;Signal;HPM_P1;HPM_P2
2023/06/21 00:02:19;;;;;;;13.23;11.97;;;;;;;;;;5033105;28;20798;-64
2023/06/21 00:04:46;;;;;;;12.67;11.47;;;;;;;;;;5033455;28;20847;-63
2023/06/21 00:07:13;;;;;;;14.30;12.03;;;;;;;;;;5033191;28;20814;-64
2023/06/21 00:09:40;;;;;;;18.70;12.97;;;;;;;;;;5032787;28;20492;-63
2023/06/21 00:12:08;;;;;;;15.40;13.63;;;;;;;;;;5032812;28;20454;-64
2023/06/21 00:14:36;;;;;;;16.97;12.70;;;;;;;;;;5033226;28;20522;-64
2023/06/21 00:17:04;;;;;;;15.40;13.13;;;;;;;;;;5032990;28;20812;-63
2023/06/21 00:19:31;;;;;;;15.93;14.33;;;;;;;;;;5032969;28;20971;-64
2023/06/21 00:21:59;;;;;;;15.57;13.97;;;;;;;;;;5032308;28;20531;-64
2023/06/21 00:24:26;;;;;;;18.33;13.77;;;;;;;;;;5033065;28;20812;-64
2023/06/21 00:26:53;;;;;;;19.90;15.07;;;;;;;;;;5033128;28;20467;-64
2023/06/21 00:29:21;;;;;;;18.73;14.80;;;;;;;;;;5032500;28;21016;-64
2023/06/21 00:31:49;;;;;;;16.87;15.17;;;;;;;;;;5032637;28;20476;-64
2023/06/21 00:34:16;;;;;;;17.93;16.00;;;;;;;;;;5036568;28;20436;-64
2023/06/21 00:36:44;;;;;;;20.50;16.90;;;;;;;;;;5036672;28;20440;-64
2023/06/21 00:39:11;;;;;;;17.30;15.50;;;;;;;;;;5036522;28;20454;-63
2023/06/21 00:41:38;;;;;;;20.67;16.07;;;;;;;;;;5036285;28;20442;-64
2023/06/21 00:44:07;;;;;;;19.17;17.13;;;;;;;;;;5036563;28;20492;-64
2023/06/21 00:46:34;;;;;;;18.27;16.50;;;;;;;;;;5036451;28;20600;-64
2023/06/21 00:49:03;;;;;;;21.07;16.70;;;;;;;;;;5035969;28;20937;-64
2023/06/21 00:51:32;;;;;;;20.50;18.10;;;;;;;;;;5036752;28;20547;-64
2023/06/21 00:54:00;;;;;;;22.77;17.57;;;;;;;;;;5036474;28;20797;-65
2023/06/21 00:56:27;;;;;;;19.87;17.77;;;;;;;;;;5036366;28;20450;-64
2023/06/21 00:58:55;;;;;;;21.03;16.57;;;;;;;;;;5036207;28;20823;-64
2023/06/21 01:01:22;;;;;;;20.93;18.60;;;;;;;;;;5036224;28;20503;-64
2023/06/21 01:03:49;;;;;;;20.57;18.33;;;;;;;;;;5036011;28;20455;-64
2023/06/21 01:06:24;;;;;;;19.37;17.53;;;;;;;;;;5035800;28;20450;-65
2023/06/21 01:08:53;;;;;;;20.70;18.60;;;;;;;;;;5035737;28;20471;-65
2023/06/21 01:11:24;;;;;;;19.60;17.50;;;;;;;;;;5036317;28;20441;-65
2023/06/21 01:14:07;;;;;;;20.30;16.50;;;;;;;;;;5036090;28;20439;-64
2023/06/21 01:16:37;;;;;;;18.77;16.90;;;;;;;;;;5035717;28;20512;-64
2023/06/21 01:19:06;;;;;;;18.37;16.60;;;;;;;;;;5035572;28;20911;-63
2023/06/21 01:21:35;;;;;;;18.17;16.50;;;;;;;;;;5035892;28;20473;-65
2023/06/21 01:24:14;;;;;;;19.23;17.33;;;;;;;;;;5035655;28;20458;-65
2023/06/21 01:26:50;;;;;;;18.80;16.90;;;;;;;;;;5035520;28;20443;-64
2023/06/21 01:29:21;;;;;;;19.33;17.27;;;;;;;;;;5035687;28;20476;-63
2023/06/21 01:31:50;;;;;;;17.17;15.50;;;;;;;;;;5035782;28;20437;-64
2023/06/21 01:34:17;;;;;;;18.57;16.70;;;;;;;;;;5035746;28;20450;-64
2023/06/21 01:36:45;;;;;;;18.20;16.50;;;;;;;;;;5035584;28;20453;-63
2023/06/21 01:39:12;;;;;;;16.40;14.80;;;;;;;;;;5035428;28;20446;-64
2023/06/21 01:41:39;;;;;;;17.27;15.30;;;;;;;;;;5035493;28;20448;-64
2023/06/21 01:44:09;;;;;;;15.37;13.53;;;;;;;;;;5035149;28;20475;-64
2023/06/21 01:46:37;;;;;;;19.50;15.10;;;;;;;;;;5035088;28;20455;-64
2023/06/21 01:49:06;;;;;;;16.77;15.07;;;;;;;;;;5035189;28;20490;-64
2023/06/21 01:51:35;;;;;;;15.40;13.97;;;;;;;;;;5035303;28;20484;-64
2023/06/21 01:54:03;;;;;;;15.93;14.23;;;;;;;;;;5035133;28;20457;-64
2023/06/21 01:56:30;;;;;;;15.63;13.53;;;;;;;;;;5035069;28;20966;-64
2023/06/21 01:58:58;;;;;;;15.23;13.27;;;;;;;;;;5035054;28;20442;-63
2023/06/21 02:01:27;;;;;;;14.53;13.00;;;;;;;;;;5035282;28;20528;-64
2023/06/21 02:03:59;;;;;;;16.10;13.47;;;;;;;;;;5034933;28;20441;-64
2023/06/21 02:06:27;;;;;;;14.37;13.07;;;;;;;;;;5035525;28;20439;-64
2023/06/21 02:08:54;;;;;;;16.23;14.70;;;;;;;;;;5034752;28;20796;-64
2023/06/21 02:11:22;;;;;;;13.87;12.47;;;;;;;;;;5034890;28;20447;-63
2023/06/21 02:13:51;;;;;;;13.43;12.03;;;;;;;;;;5034724;28;20958;-64
2023/06/21 02:16:19;;;;;;;14.03;12.50;;;;;;;;;;5034972;28;20452;-64
2023/06/21 02:18:48;;;;;;;14.80;13.30;;;;;;;;;;5034897;28;20458;-64
2023/06/21 02:21:17;;;;;;;13.70;12.43;;;;;;;;;;5034399;28;20588;-64
2023/06/21 02:23:44;;;;;;;13.47;12.03;;;;;;;;;;5034160;28;20939;-64
2023/06/21 02:26:12;;;;;;;13.90;12.60;;;;;;;;;;5034195;28;20444;-64
2023/06/21 02:28:39;;;;;;;15.33;13.00;;;;;;;;;;5034638;28;20816;-64
2023/06/21 02:31:06;;;;;;;15.57;13.60;;;;;;;;;;5034329;28;20506;-64
2023/06/21 02:33:33;;;;;;;19.23;14.90;;;;;;;;;;5033886;28;20444;-63
2023/06/21 02:36:00;;;;;;;14.80;13.30;;;;;;;;;;5034155;28;20566;-64
2023/06/21 02:38:31;;;;;;;21.13;13.97;;;;;;;;;;5033799;28;20445;-64
2023/06/21 02:40:59;;;;;;;17.27;14.27;;;;;;;;;;5034185;28;20433;-64
2023/06/21 02:43:26;;;;;;;20.20;14.87;;;;;;;;;;5034842;28;20945;-63
2023/06/21 02:45:54;;;;;;;16.73;14.83;;;;;;;;;;5033972;28;20441;-63
2023/06/21 02:48:21;;;;;;;15.23;13.47;;;;;;;;;;5033983;28;20450;-64
2023/06/21 02:50:48;;;;;;;18.17;15.30;;;;;;;;;;5033731;28;20493;-63
2023/06/21 02:53:16;;;;;;;17.10;15.23;;;;;;;;;;5034518;28;20468;-63
2023/06/21 02:55:44;;;;;;;17.13;15.40;;;;;;;;;;5033037;28;20456;-64
2023/06/21 02:58:12;;;;;;;18.60;15.97;;;;;;;;;;5033497;28;20506;-64
2023/06/21 03:00:40;;;;;;;17.73;15.90;;;;;;;;;;5033522;28;20970;-64
2023/06/21 03:03:08;;;;;;;23.03;16.90;;;;;;;;;;5033477;28;20441;-64
2023/06/21 03:05:35;;;;;;;22.10;18.37;;;;;;;;;;5033898;28;20799;-64
2023/06/21 03:08:04;;;;;;;17.80;16.10;;;;;;;;;;5033714;28;20534;-64
2023/06/21 03:10:32;;;;;;;21.40;18.70;;;;;;;;;;5033828;28;20879;-64
2023/06/21 03:13:01;;;;;;;21.43;18.47;;;;;;;;;;5033697;28;20555;-64
2023/06/21 03:15:28;;;;;;;20.27;18.17;;;;;;;;;;5033527;28;20799;-64
2023/06/21 03:17:55;;;;;;;20.87;18.80;;;;;;;;;;5033562;28;20440;-64
2023/06/21 03:20:24;;;;;;;22.97;18.57;;;;;;;;;;5032991;28;20469;-64
2023/06/21 03:22:51;;;;;;;19.60;17.57;;;;;;;;;;5033514;28;20506;-64
2023/06/21 03:25:19;;;;;;;20.93;18.00;;;;;;;;;;5033779;28;20958;-63
2023/06/21 03:27:47;;;;;;;21.87;19.10;;;;;;;;;;5033451;28;20445;-64
2023/06/21 03:30:16;;;;;;;23.13;19.63;;;;;;;;;;5032899;28;20480;-64
2023/06/21 03:32:46;;;;;;;26.20;19.97;;;;;;;;;;5033301;28;20441;-64
2023/06/21 03:35:14;;;;;;;22.57;19.67;;;;;;;;;;5033598;28;20494;-64
2023/06/21 03:37:41;;;;;;;23.87;19.40;;;;;;;;;;5032964;28;20446;-64
2023/06/21 03:40:11;;;;;;;26.67;21.60;;;;;;;;;;5033211;28;20536;-64
2023/06/21 03:42:38;;;;;;;23.37;20.87;;;;;;;;;;5033778;28;20901;-64
2023/06/21 03:45:07;;;;;;;25.67;22.00;;;;;;;;;;5032926;28;20942;-64
2023/06/21 03:47:35;;;;;;;23.87;21.13;;;;;;;;;;5033627;28;20483;-64
2023/06/21 03:50:03;;;;;;;26.80;21.57;;;;;;;;;;5032606;28;20481;-65
2023/06/21 03:52:30;;;;;;;27.13;22.73;;;;;;;;;;5033080;28;20544;-64
2023/06/21 03:54:57;;;;;;;25.47;20.97;;;;;;;;;;5019875;28;20527;-64
2023/06/21 03:57:24;;;;;;;26.07;22.07;;;;;;;;;;5013082;28;20943;-64
2023/06/21 03:59:52;;;;;;;23.93;19.97;;;;;;;;;;5013344;28;20465;-65
2023/06/21 04:02:20;;;;;;;24.17;20.83;;;;;;;;;;5013642;28;20446;-64
2023/06/21 04:04:49;;;;;;;24.50;20.33;;;;;;;;;;5013120;28;20946;-65
2023/06/21 04:07:19;;;;;;;23.73;19.03;;;;;;;;;;5015458;28;20549;-65
2023/06/21 04:09:46;;;;;;;27.27;20.90;;;;;;;;;;5017200;28;20486;-64
2023/06/21 04:12:13;;;;;;;24.00;19.93;;;;;;;;;;5017170;28;20447;-64
2023/06/21 04:14:40;;;;;;;25.33;20.27;;;;;;;;;;5017122;28;20451;-64
2023/06/21 04:17:08;;;;;;;22.70;18.00;;;;;;;;;;5016814;28;20445;-64
2023/06/21 04:19:35;;;;;;;22.43;19.63;;;;;;;;;;5017098;28;20449;-64
2023/06/21 04:22:04;;;;;;;26.07;19.77;;;;;;;;;;5016573;28;20457;-65
2023/06/21 04:24:31;;;;;;;22.87;19.10;;;;;;;;;;5016721;28;20479;-64
2023/06/21 04:26:59;;;;;;;20.37;18.27;;;;;;;;;;5016730;28;20452;-65
2023/06/21 04:29:26;;;;;;;22.97;18.50;;;;;;;;;;5016536;28;20537;-64
2023/06/21 04:31:55;;;;;;;22.50;17.03;;;;;;;;;;5016644;28;20700;-64
2023/06/21 04:34:22;;;;;;;23.60;16.87;;;;;;;;;;5016455;28;20938;-64
2023/06/21 04:36:49;;;;;;;21.57;17.67;;;;;;;;;;5016753;28;20447;-64
2023/06/21 04:39:20;;;;;;;23.00;18.53;;;;;;;;;;5016822;28;20485;-65
2023/06/21 04:41:47;;;;;;;20.93;18.73;;;;;;;;;;5016753;28;20465;-65
2023/06/21 04:44:17;;;;;;;22.13;17.30;;;;;;;;;;5016635;28;20448;-64
2023/06/21 04:46:44;;;;;;;22.03;16.00;;;;;;;;;;5016462;28;20449;-64
2023/06/21 04:49:11;;;;;;;21.67;17.10;;;;;;;;;;5016399;28;20446;-65
2023/06/21 04:51:38;;;;;;;24.90;19.10;;;;;;;;;;5016406;28;20493;-65
2023/06/21 04:54:07;;;;;;;19.60;17.47;;;;;;;;;;5016615;28;20449;-65
2023/06/21 04:56:36;;;;;;;24.23;17.70;;;;;;;;;;5016001;28;20908;-65
2023/06/21 04:59:03;;;;;;;22.87;16.37;;;;;;;;;;5016306;28;20923;-64
2023/06/21 05:01:32;;;;;;;22.97;16.63;;;;;;;;;;5016098;28;20458;-64
2023/06/21 05:03:59;;;;;;;18.97;15.87;;;;;;;;;;5016421;28;20446;-64
2023/06/21 05:06:27;;;;;;;22.97;18.67;;;;;;;;;;5015815;28;20540;-64
2023/06/21 05:08:54;;;;;;;18.90;17.00;;;;;;;;;;5016044;28;20540;-64
2023/06/21 05:11:21;;;;;;;23.00;16.77;;;;;;;;;;5015627;28;21004;-65
2023/06/21 05:13:50;;;;;;;20.43;16.27;;;;;;;;;;5015932;28;20449;-64
2023/06/21 05:16:17;;;;;;;18.47;16.73;;;;;;;;;;5015553;28;20447;-64
2023/06/21 05:18:44;;;;;;;18.77;16.73;;;;;;;;;;5015057;28;20444;-64
2023/06/21 05:21:11;;;;;;;17.40;15.70;;;;;;;;;;5015557;28;21101;-64
2023/06/21 05:23:39;;;;;;;19.70;15.90;;;;;;;;;;5015725;28;20446;-64
2023/06/21 05:26:06;;;;;;;20.77;18.00;;;;;;;;;;5015353;28;20473;-65
2023/06/21 05:28:33;;;;;;;17.80;15.93;;;;;;;;;;5015382;28;20451;-64
2023/06/21 05:31:01;;;;;;;20.03;16.53;;;;;;;;;;5015513;28;20536;-65
2023/06/21 05:33:29;;;;;;;19.83;17.50;;;;;;;;;;5015577;28;20813;-64
2023/06/21 05:35:56;;;;;;;19.13;16.97;;;;;;;;;;5015659;28;20520;-64
2023/06/21 05:38:23;;;;;;;17.13;15.13;;;;;;;;;;5015553;28;20450;-64
2023/06/21 05:40:50;;;;;;;18.30;16.10;;;;;;;;;;5015096;28;20458;-64
2023/06/21 05:43:18;;;;;;;17.33;15.57;;;;;;;;;;5015429;28;20474;-64
2023/06/21 05:45:45;;;;;;;21.10;18.97;;;;;;;;;;5015671;28;20478;-64
2023/06/21 05:48:13;;;;;;;21.03;18.63;;;;;;;;;;5015485;28;20450;-65
2023/06/21 05:50:41;;;;;;;19.63;17.53;;;;;;;;;;5014827;28;20519;-64
2023/06/21 05:53:08;;;;;;;21.83;19.50;;;;;;;;;;5015103;28;20462;-64
2023/06/21 05:55:35;;;;;;;21.33;19.20;;;;;;;;;;5015147;28;20448;-64
2023/06/21 05:58:03;;;;;;;25.00;18.80;;;;;;;;;;5015120;28;20449;-65
2023/06/21 06:00:30;;;;;;;21.97;19.87;;;;;;;;;;5015553;28;20443;-64
2023/06/21 06:02:58;;;;;;;21.77;19.53;;;;;;;;;;5015234;28;20455;-64
2023/06/21 06:05:26;;;;;;;21.13;18.93;;;;;;;;;;5014943;28;20445;-65
2023/06/21 06:07:53;;;;;;;21.13;18.90;;;;;;;;;;5014652;28;20441;-64
2023/06/21 06:10:20;;;;;;;21.63;19.33;;;;;;;;;;5014730;28;20923;-64
2023/06/21 06:12:48;;;;;;;23.60;19.40;;;;;;;;;;5014506;28;20450;-64
2023/06/21 06:15:15;;;;;;;22.87;20.57;;;;;;;;;;5014640;28;20937;-65
2023/06/21 06:17:42;;;;;;;21.13;18.93;;;;;;;;;;5014781;28;20447;-64
2023/06/21 06:20:10;;;;;;;24.33;19.97;;;;;;;;;;5014294;28;20558;-64
2023/06/21 06:22:39;;;;;;;22.03;19.90;;;;;;;;;;5014566;28;20453;-64
2023/06/21 06:25:07;;;;;;;25.23;18.40;;;;;;;;;;5014643;28;20450;-64
2023/06/21 06:27:34;;;;;;;25.30;19.30;;;;;;;;;;5014462;28;20454;-64
2023/06/21 06:30:02;;;;;;;21.90;19.70;;;;;;;;;;5014531;28;20442;-65
2023/06/21 06:32:29;;;;;;;21.90;19.80;;;;;;;;;;5014315;28;20478;-64
2023/06/21 06:34:56;;;;;;;21.27;19.07;;;;;;;;;;5014288;28;20458;-65
2023/06/21 06:37:24;;;;;;;20.30;18.40;;;;;;;;;;5014122;28;20445;-65
2023/06/21 06:39:53;;;;;;;21.20;19.07;;;;;;;;;;5014531;28;20443;-65
2023/06/21 06:42:20;;;;;;;19.67;17.67;;;;;;;;;;5014535;28;20451;-64
2023/06/21 06:44:47;;;;;;;18.10;16.20;;;;;;;;;;5014344;28;20448;-65
2023/06/21 06:47:15;;;;;;;18.50;16.30;;;;;;;;;;5014354;28;20971;-65
2023/06/21 06:49:42;;;;;;;18.97;17.10;;;;;;;;;;5014115;28;20447;-65
2023/06/21 06:52:11;;;;;;;17.40;15.80;;;;;;;;;;5014103;28;20487;-65
2023/06/21 06:54:39;;;;;;;17.03;15.33;;;;;;;;;;5014317;28;20473;-64
2023/06/21 06:57:07;;;;;;;19.43;17.57;;;;;;;;;;5013587;28;20442;-65
2023/06/21 06:59:34;;;;;;;22.43;17.03;;;;;;;;;;5014015;28;20822;-65
2023/06/21 07:02:02;;;;;;;19.13;17.30;;;;;;;;;;5013666;28;20449;-65
2023/06/21 07:04:30;;;;;;;19.70;17.80;;;;;;;;;;5013843;28;20868;-65
2023/06/21 07:07:01;;;;;;;19.17;17.37;;;;;;;;;;5018219;28;20504;-65
2023/06/21 07:09:28;;;;;;;23.43;19.10;;;;;;;;;;5033706;28;20846;-65
2023/06/21 07:11:59;;;;;;;19.93;18.03;;;;;;;;;;5033890;28;20483;-65
2023/06/21 07:14:27;;;;;;;17.83;16.13;;;;;;;;;;5033154;28;20507;-65
2023/06/21 07:16:54;;;;;;;18.70;16.80;;;;;;;;;;5033041;28;20442;-65
2023/06/21 07:19:22;;;;;;;19.50;17.60;;;;;;;;;;5033311;28;20451;-65
2023/06/21 07:21:49;;;;;;;18.00;16.27;;;;;;;;;;5032890;28;20486;-65
2023/06/21 07:24:17;;;;;;;17.47;15.83;;;;;;;;;;5026421;28;20491;-65
2023/06/21 07:26:44;;;;;;;19.77;17.67;;;;;;;;;;5013281;28;20455;-64
2023/06/21 07:29:11;;;;;;;20.03;18.17;;;;;;;;;;5013177;28;20945;-64
2023/06/21 07:31:40;;;;;;;20.37;18.57;;;;;;;;;;5013623;28;20474;-64
2023/06/21 07:34:08;;;;;;;19.37;17.47;;;;;;;;;;5013329;28;20440;-66
2023/06/21 07:36:35;;;;;;;21.47;19.17;;;;;;;;;;5013414;28;20456;-64
2023/06/21 07:39:04;;;;;;;21.23;19.03;;;;;;;;;;5013373;28;20432;-64
2023/06/21 07:41:31;;;;;;;21.50;19.40;;;;;;;;;;5013196;28;20455;-65
2023/06/21 07:43:58;;;;;;;20.90;18.47;;;;;;;;;;5013449;28;20551;-65
2023/06/21 07:46:25;;;;;;;20.47;18.37;;;;;;;;;;5013186;28;20529;-64
2023/06/21 07:48:54;;;;;;;22.90;20.50;;;;;;;;;;5012952;28;20444;-64
2023/06/21 07:51:21;;;;;;;23.87;21.50;;;;;;;;;;5012895;28;20569;-64
2023/06/21 07:53:48;;;;;;;21.57;19.23;;;;;;;;;;5013261;28;20440;-66
2023/06/21 07:56:16;;;;;;;22.17;19.97;;;;;;;;;;5013245;28;20447;-66
2023/06/21 07:58:43;;;;;;;21.00;18.83;;;;;;;;;;5013264;28;20778;-64
2023/06/21 08:01:12;;;;;;;23.73;19.13;;;;;;;;;;5013336;28;20799;-64
2023/06/21 08:03:39;;;;;;;20.17;18.10;;;;;;;;;;5012831;28;20451;-64
2023/06/21 08:06:07;;;;;;;20.63;18.70;;;;;;;;;;5013121;28;20444;-64
2023/06/21 08:08:35;;;;;;;21.50;17.50;;;;;;;;;;5012710;28;20978;-64
2023/06/21 08:11:02;;;;;;;18.20;16.50;;;;;;;;;;5013008;28;20484;-64
2023/06/21 08:13:30;;;;;;;19.80;17.57;;;;;;;;;;5013122;28;20821;-67
2023/06/21 08:15:57;;;;;;;18.83;16.83;;;;;;;;;;5012828;28;20444;-64
2023/06/21 08:18:24;;;;;;;17.40;15.73;;;;;;;;;;5012800;28;20996;-65
2023/06/21 08:20:51;;;;;;;17.80;16.10;;;;;;;;;;5013319;28;20472;-64
2023/06/21 08:23:20;;;;;;;14.30;13.00;;;;;;;;;;5012964;28;20454;-64
2023/06/21 08:25:48;;;;;;;13.53;12.30;;;;;;;;;;5013094;28;20506;-64
2023/06/21 08:28:15;;;;;;;15.53;14.03;;;;;;;;;;5013247;28;20793;-63
2023/06/21 08:30:43;;;;;;;15.33;13.80;;;;;;;;;;5013187;28;20473;-64
2023/06/21 08:33:10;;;;;;;13.97;12.67;;;;;;;;;;5013129;28;20577;-65
2023/06/21 08:35:37;;;;;;;14.73;13.33;;;;;;;;;;5013082;28;20444;-64
2023/06/21 08:38:04;;;;;;;15.80;14.40;;;;;;;;;;5012831;28;20457;-64
2023/06/21 08:40:36;;;;;;;13.73;11.67;;;;;;;;;;5012723;28;20957;-64
2023/06/21 08:43:03;;;;;;;12.87;11.77;;;;;;;;;;5013707;28;20467;-63
2023/06/21 08:45:30;;;;;;;13.37;12.20;;;;;;;;;;5012627;28;20442;-64
2023/06/21 08:48:00;;;;;;;14.20;12.97;;;;;;;;;;5013108;28;20457;-64
2023/06/21 08:50:28;;;;;;;14.93;13.63;;;;;;;;;;5013102;28;20458;-64
2023/06/21 08:52:55;;;;;;;14.37;13.10;;;;;;;;;;5013482;28;20572;-64
2023/06/21 08:55:23;;;;;;;15.87;14.27;;;;;;;;;;5016138;28;20956;-64
2023/06/21 08:57:55;;;;;;;14.43;13.20;;;;;;;;;;5015984;28;20822;-64
2023/06/21 09:00:23;;;;;;;15.07;13.57;;;;;;;;;;5016186;28;20814;-64
2023/06/21 09:02:56;;;;;;;14.57;13.17;;;;;;;;;;5016393;28;20769;-65
2023/06/21 09:05:28;;;;;;;13.67;12.37;;;;;;;;;;5016323;28;20450;-64
2023/06/21 09:07:55;;;;;;;13.93;12.63;;;;;;;;;;5016272;28;20422;-64
2023/06/21 09:10:23;;;;;;;12.40;11.30;;;;;;;;;;5016067;28;20443;-64
2023/06/21 09:12:52;;;;;;;13.30;12.20;;;;;;;;;;5015733;28;20479;-64
2023/06/21 09:15:20;;;;;;;12.40;11.40;;;;;;;;;;5015733;28;20942;-64
2023/06/21 09:17:48;;;;;;;11.80;10.67;;;;;;;;;;5016116;28;20769;-64
2023/06/21 09:20:16;;;;;;;13.30;12.00;;;;;;;;;;5016037;28;20924;-64
2023/06/21 09:22:46;;;;;;;13.40;12.17;;;;;;;;;;5015918;28;20463;-64
2023/06/21 09:25:13;;;;;;;13.20;11.90;;;;;;;;;;5015954;28;20825;-64
2023/06/21 09:27:40;;;;;;;13.67;12.27;;;;;;;;;;5015381;28;20489;-64
2023/06/21 09:30:09;;;;;;;15.00;13.70;;;;;;;;;;5015312;28;21022;-64
2023/06/21 09:32:37;;;;;;;14.60;13.17;;;;;;;;;;5015569;28;20483;-64
2023/06/21 09:35:04;;;;;;;14.90;13.53;;;;;;;;;;5015674;28;20452;-64
2023/06/21 09:37:32;;;;;;;18.37;16.57;;;;;;;;;;5015328;28;20530;-64
2023/06/21 09:39:59;;;;;;;17.00;15.50;;;;;;;;;;5015117;28;20453;-64
2023/06/21 09:42:27;;;;;;;16.50;14.97;;;;;;;;;;5015208;28;20929;-63
2023/06/21 09:44:54;;;;;;;16.10;14.80;;;;;;;;;;5015233;28;20454;-64
2023/06/21 09:47:22;;;;;;;17.67;16.17;;;;;;;;;;5015286;28;20454;-64
2023/06/21 09:49:50;;;;;;;19.03;17.43;;;;;;;;;;5015410;28;20443;-64
2023/06/21 09:52:18;;;;;;;19.70;18.10;;;;;;;;;;5014962;28;21058;-64
2023/06/21 09:54:45;;;;;;;18.17;16.57;;;;;;;;;;5015307;28;20444;-64
2023/06/21 09:57:13;;;;;;;18.97;17.33;;;;;;;;;;5015778;28;20481;-64
2023/06/21 09:59:41;;;;;;;20.00;18.23;;;;;;;;;;5015308;28;20453;-67
2023/06/21 10:02:08;;;;;;;17.63;16.13;;;;;;;;;;5014980;28;20453;-63
2023/06/21 10:04:42;;;;;;;17.23;15.63;;;;;;;;;;5014932;28;20950;-63
2023/06/21 10:07:11;;;;;;;17.73;16.20;;;;;;;;;;5015663;28;20441;-64
2023/06/21 10:09:41;;;;;;;17.97;16.27;;;;;;;;;;5014869;28;20439;-64
2023/06/21 10:12:10;;;;;;;18.17;16.60;;;;;;;;;;5014859;28;20567;-63
2023/06/21 10:14:37;;;;;;;17.13;15.70;;;;;;;;;;5014753;28;20537;-64
2023/06/21 10:17:04;;;;;;;18.90;17.00;;;;;;;;;;5014501;28;20465;-64
2023/06/21 10:19:32;;;;;;;16.53;15.10;;;;;;;;;;5014590;28;20941;-64
2023/06/21 10:22:04;;;;;;;16.53;14.93;;;;;;;;;;5014143;28;21011;-64
2023/06/21 10:24:34;;;;;;;16.53;15.03;;;;;;;;;;5014501;28;20438;-64
2023/06/21 10:27:01;;;;;;;15.90;14.60;;;;;;;;;;5014845;28;20442;-63
2023/06/21 10:29:29;;;;;;;15.83;14.43;;;;;;;;;;5014667;28;20443;-64
2023/06/21 10:31:58;;;;;;;14.93;13.63;;;;;;;;;;5014502;28;20476;-63
2023/06/21 10:34:28;;;;;;;17.13;15.33;;;;;;;;;;5014614;28;20450;-64
2023/06/21 10:36:59;;;;;;;16.23;14.90;;;;;;;;;;5014248;28;20927;-64
2023/06/21 10:39:28;;;;;;;16.80;15.50;;;;;;;;;;5014256;28;20444;-64
2023/06/21 10:41:56;;;;;;;16.60;15.20;;;;;;;;;;5014436;28;20456;-64
2023/06/21 10:44:23;;;;;;;16.10;14.70;;;;;;;;;;5014379;28;20534;-64
2023/06/21 10:46:50;;;;;;;17.27;15.67;;;;;;;;;;5013921;28;20471;-64
2023/06/21 10:49:18;;;;;;;15.00;13.80;;;;;;;;;;5013772;28;20518;-64
2023/06/21 10:51:45;;;;;;;16.70;15.10;;;;;;;;;;5013994;28;20564;-64
2023/06/21 10:54:14;;;;;;;16.50;15.10;;;;;;;;;;5014111;28;20474;-64
2023/06/21 10:56:43;;;;;;;16.20;14.60;;;;;;;;;;5013841;28;20445;-64
2023/06/21 10:59:10;;;;;;;15.77;14.47;;;;;;;;;;5013983;28;20443;-64
2023/06/21 11:01:38;;;;;;;14.63;13.30;;;;;;;;;;5013559;28;20532;-64
2023/06/21 11:04:05;;;;;;;14.13;12.93;;;;;;;;;;5013966;28;20455;-67
2023/06/21 11:06:34;;;;;;;15.53;14.17;;;;;;;;;;5013522;28;20459;-64
2023/06/21 11:09:09;;;;;;;15.33;13.90;;;;;;;;;;5013246;28;20457;-64
2023/06/21 11:11:37;;;;;;;17.33;14.10;;;;;;;;;;5012936;28;20427;-65
2023/06/21 11:14:08;;;;;;;19.13;14.97;;;;;;;;;;5013383;28;20491;-69
2023/06/21 11:16:36;;;;;;;14.60;13.20;;;;;;;;;;5012666;28;20501;-64
2023/06/21 11:19:04;;;;;;;13.70;12.40;;;;;;;;;;5013860;28;20481;-62
2023/06/21 11:21:37;;;;;;;14.07;12.77;;;;;;;;;;5013271;28;20570;-62
2023/06/21 11:24:07;;;;;;;14.53;13.23;;;;;;;;;;5013493;28;20443;-63
2023/06/21 11:26:49;;;;;;;14.87;13.60;;;;;;;;;;5013149;28;20940;-63
2023/06/21 11:29:18;;;;;;;14.80;13.40;;;;;;;;;;5013351;28;20553;-62
2023/06/21 11:31:45;;;;;;;15.40;13.90;;;;;;;;;;5012292;28;20452;-62
2023/06/21 11:34:23;;;;;;;15.27;13.97;;;;;;;;;;5013756;28;20454;-64
2023/06/21 11:36:51;;;;;;;15.63;14.13;;;;;;;;;;5013335;28;20994;-63
2023/06/21 11:39:26;;;;;;;12.93;11.83;;;;;;;;;;5013043;28;20475;-63
2023/06/21 11:42:02;;;;;;;12.07;11.07;;;;;;;;;;5013306;28;20443;-62
2023/06/21 11:44:32;;;;;;;11.13;10.00;;;;;;;;;;5013103;28;20444;-63
2023/06/21 11:47:14;;;;;;;12.90;11.70;;;;;;;;;;5013106;28;20817;-63
2023/06/21 11:49:46;;;;;;;12.43;11.30;;;;;;;;;;5013181;28;20430;-63
2023/06/21 11:52:14;;;;;;;11.40;10.50;;;;;;;;;;5012715;28;20869;-63
2023/06/21 11:54:41;;;;;;;11.70;10.70;;;;;;;;;;5013417;28;20813;-63
2023/06/21 11:57:09;;;;;;;13.33;11.10;;;;;;;;;;5012996;28;20449;-63
2023/06/21 11:59:38;;;;;;;13.43;12.23;;;;;;;;;;5013408;28;20460;-63
2023/06/21 12:02:12;;;;;;;12.50;11.40;;;;;;;;;;5012850;28;20473;-63
2023/06/21 12:04:40;;;;;;;11.57;10.67;;;;;;;;;;5013108;28;20434;-63
2023/06/21 12:07:08;;;;;;;11.73;10.70;;;;;;;;;;5013136;28;20450;-63
2023/06/21 12:09:35;;;;;;;10.60;9.80;;;;;;;;;;5012987;28;20999;-63
2023/06/21 12:12:02;;;;;;;8.97;8.17;;;;;;;;;;5012721;28;20933;-63
2023/06/21 12:14:30;;;;;;;9.20;8.37;;;;;;;;;;5012783;28;20461;-63
2023/06/21 12:17:00;;;;;;;8.63;7.73;;;;;;;;;;5012707;28;20450;-63
2023/06/21 12:19:27;;;;;;;8.80;8.03;;;;;;;;;;5013358;28;20431;-63
2023/06/21 12:22:01;;;;;;;8.40;7.70;;;;;;;;;;5013421;28;20804;-63
2023/06/21 12:24:30;;;;;;;19.97;8.47;;;;;;;;;;5012852;28;20898;-63
2023/06/21 12:26:58;;;;;;;9.10;8.30;;;;;;;;;;5013771;28;20471;-62
2023/06/21 12:29:27;;;;;;;9.00;8.20;;;;;;;;;;5016895;28;20459;-64
2023/06/21 12:31:56;;;;;;;7.87;7.27;;;;;;;;;;5016332;28;20453;-64
2023/06/21 12:34:25;;;;;;;8.17;7.47;;;;;;;;;;5016717;28;20554;-63
2023/06/21 12:36:53;;;;;;;8.23;7.40;;;;;;;;;;5017013;28;20485;-63
2023/06/21 12:39:21;;;;;;;7.90;7.20;;;;;;;;;;5016381;28;20822;-63
2023/06/21 12:41:49;;;;;;;8.10;7.40;;;;;;;;;;5016676;28;20944;-63
2023/06/21 12:44:21;;;;;;;7.80;7.20;;;;;;;;;;5016584;28;20456;-64
2023/06/21 12:46:49;;;;;;;9.10;8.00;;;;;;;;;;5016685;28;20766;-63
2023/06/21 12:49:16;;;;;;;8.37;7.57;;;;;;;;;;5016626;28;20456;-64
2023/06/21 12:51:46;;;;;;;7.87;7.07;;;;;;;;;;5016824;28;20869;-63
2023/06/21 12:54:14;;;;;;;7.90;7.20;;;;;;;;;;5016458;28;20681;-64
2023/06/21 12:56:42;;;;;;;9.60;8.60;;;;;;;;;;5016274;28;20436;-63
2023/06/21 12:59:09;;;;;;;9.03;8.13;;;;;;;;;;5016393;28;20872;-63
2023/06/21 13:01:37;;;;;;;8.30;7.60;;;;;;;;;;5016098;28;20447;-63
2023/06/21 13:04:06;;;;;;;11.73;7.67;;;;;;;;;;5016006;28;20864;-63
2023/06/21 13:06:33;;;;;;;8.87;8.00;;;;;;;;;;5016005;28;20452;-64
2023/06/21 13:09:02;;;;;;;12.03;6.93;;;;;;;;;;5016316;28;20450;-64
2023/06/21 13:11:29;;;;;;;6.20;5.70;;;;;;;;;;5015808;28;20443;-63
2023/06/21 13:13:56;;;;;;;7.20;5.27;;;;;;;;;;5016103;28;20969;-63
2023/06/21 13:16:24;;;;;;;6.87;6.10;;;;;;;;;;5016060;28;20493;-63
2023/06/21 13:18:52;;;;;;;6.30;5.70;;;;;;;;;;5029318;28;20497;-63
2023/06/21 13:21:21;;;;;;;9.33;6.87;;;;;;;;;;5035153;28;20477;-63
2023/06/21 13:23:49;;;;;;;5.80;5.40;;;;;;;;;;5035762;28;20537;-63
2023/06/21 13:26:18;;;;;;;6.43;5.60;;;;;;;;;;5035265;28;20442;-63
2023/06/21 13:28:45;;;;;;;6.50;6.00;;;;;;;;;;5035531;28;20450;-63
2023/06/21 13:31:14;;;;;;;6.27;5.67;;;;;;;;;;5019965;28;20462;-63
2023/06/21 13:33:41;;;;;;;5.73;5.30;;;;;;;;;;5015673;28;20573;-64
2023/06/21 13:36:08;;;;;;;6.60;5.30;;;;;;;;;;5015331;28;20451;-63
2023/06/21 13:38:36;;;;;;;5.40;5.00;;;;;;;;;;5015073;28;20513;-64
2023/06/21 13:41:06;;;;;;;4.90;4.50;;;;;;;;;;5015363;28;20531;-63
2023/06/21 13:43:34;;;;;;;7.13;4.80;;;;;;;;;;5015671;28;20447;-63
2023/06/21 13:46:02;;;;;;;5.17;4.67;;;;;;;;;;5015464;28;20454;-63
2023/06/21 13:48:29;;;;;;;5.57;5.17;;;;;;;;;;5015398;28;20464;-63
2023/06/21 13:50:56;;;;;;;5.73;5.23;;;;;;;;;;5015144;28;20937;-63
2023/06/21 13:53:23;;;;;;;5.00;4.50;;;;;;;;;;5015204;28;21021;-63
2023/06/21 13:55:51;;;;;;;4.90;4.60;;;;;;;;;;5015198;28;20425;-63
2023/06/21 13:58:18;;;;;;;4.70;4.30;;;;;;;;;;5015137;28;20478;-63
2023/06/21 14:00:46;;;;;;;5.00;4.60;;;;;;;;;;5014941;28;20789;-63
2023/06/21 14:03:14;;;;;;;4.77;4.30;;;;;;;;;;5014758;28;20675;-64
2023/06/21 14:05:41;;;;;;;4.53;4.13;;;;;;;;;;5014748;28;20417;-63
2023/06/21 14:08:08;;;;;;;4.70;4.30;;;;;;;;;;5014557;28;20418;-64
2023/06/21 14:10:35;;;;;;;5.03;4.33;;;;;;;;;;5014861;28;20953;-63
2023/06/21 14:13:03;;;;;;;6.00;4.50;;;;;;;;;;5015089;28;20528;-63
2023/06/21 14:15:30;;;;;;;4.90;4.50;;;;;;;;;;5014612;28;20424;-63
2023/06/21 14:18:02;;;;;;;4.67;4.37;;;;;;;;;;5014681;28;20439;-63
2023/06/21 14:20:30;;;;;;;4.77;4.47;;;;;;;;;;5014635;28;20449;-63
2023/06/21 14:22:57;;;;;;;5.17;4.63;;;;;;;;;;5014520;28;20454;-63
2023/06/21 14:25:24;;;;;;;5.43;4.87;;;;;;;;;;5014639;28;20628;-63
2023/06/21 14:27:51;;;;;;;5.70;5.20;;;;;;;;;;5015149;28;20449;-63